Flight Track Log - Related Links

Times and Time Zones

All times are in EDT time to prevent confusion due to time zone crossing. See the SWA1 flight status page for this flight to view local times or setup timezone preferences in your user account.

Time Position Orientation Groundspeed Altitude Reporting Facility
EDT Latitude Longitude Course Direction KTS MPH feet Rate Location/Type
Wed 06:02:39 PM 39.1667 -76.7167 303° West 254 292 3,800  Level Potomac TRACON
Wed 06:03:39 PM 39.1833 -76.8167 282° West 245 282 7,100 3,248 Climbing Potomac TRACON
Wed 06:04:28 PM 39.2000 -76.8833 288° West 233 268 9,700 2,817 Climbing Potomac TRACON
Wed 06:05:34 PM 39.2167 -76.9667 284° West 253 291 12,500 2,429 Climbing Potomac TRACON
Wed 06:06:34 PM 39.2167 -77.0500 270° West 247 284 14,800 1,672 Climbing Potomac TRACON
Wed 06:07:00 PM 39.0901 -77.2393 211° Southwest  Level FlightAware Approximate
Wed 06:08:55 PM 39.1128 -77.2394 235° Southwest 301 346 18,100  Level Washington Center
Wed 06:09:55 PM 39.0325 -77.3072 213° Southwest 325 374 19,000 500 Climbing Washington Center
Wed 06:10:55 PM 38.9894 -77.4075 241° Southwest 320 368 19,100 650 Climbing Washington Center
Wed 06:11:55 PM 38.9686 -77.5300 258° West 326 375 20,300 1,250 Climbing Washington Center
Wed 06:12:55 PM 38.9478 -77.6603 258° West 359 413 21,600 1,400 Climbing Washington Center
Wed 06:13:55 PM 38.9478 -77.7831 270° West 376 433 23,100 1,450 Climbing Washington Center
Wed 06:14:55 PM 38.9492 -77.9192 271° West 382 440 24,500 1,400 Climbing Washington Center
Wed 06:15:55 PM 38.9550 -78.0556 273° West 388 447 25,900 1,500 Climbing Washington Center
Wed 06:16:55 PM 38.9603 -78.1972 273° West 388 447 27,500 1,500 Climbing Washington Center
Wed 06:17:55 PM 38.9633 -78.3333 272° West 388 447 28,900 1,100 Climbing Washington Center
Wed 06:18:55 PM 38.9686 -78.4697 273° West 388 447 29,700 1,100 Climbing Washington Center
Wed 06:19:55 PM 38.9736 -78.6114 273° West 388 447 31,100 1,500 Climbing Washington Center
Wed 06:20:55 PM 38.9783 -78.7506 273° West 388 447 32,700 1,400 Climbing Washington Center
Wed 06:21:55 PM 38.9811 -78.8761 272° West 382 440 33,900 650 Climbing Washington Center
Wed 06:22:55 PM 38.9839 -79.0072 272° West 372 428 34,000 50 Climbing Washington Center
Wed 06:23:55 PM 38.9864 -79.1328 272° West 360 414 34,000  Level Washington Center
Wed 06:24:56 PM 38.9908 -79.2611 273° West 360 414 34,000  Level Washington Center
Wed 06:25:55 PM 38.9933 -79.3869 272° West 365 420 34,000  Level Washington Center
Wed 06:26:55 PM 38.9956 -79.5125 271° West 365 420 34,000  Level Washington Center
Wed 06:27:55 PM 39.0011 -79.6544 273° West 365 420 34,000  Level Washington Center
Wed 06:28:55 PM 39.0094 -79.7806 275° West 370 426 34,000  Level Washington Center
Wed 06:29:55 PM 39.0200 -79.8906 277° West 355 409 34,000  Level Washington Center
Wed 06:31:54 PM 39.0417 -80.1344 277° West 347 399 34,000  Level Indianapolis Center
Wed 06:32:56 PM 39.0581 -80.2564 280° West 346 398 34,000  Level Indianapolis Center
Wed 06:33:58 PM 39.0914 -80.3769 290° West 356 410 34,000  Level Indianapolis Center
Wed 06:35:00 PM 39.1219 -80.4964 288° West 354 407 34,000  Level Indianapolis Center
Wed 06:36:02 PM 39.1511 -80.6158 288° West 352 405 34,000  Level Indianapolis Center
Wed 06:37:04 PM 39.1867 -80.7564 288° West 346 398 34,000  Level Indianapolis Center
Wed 06:38:06 PM 39.2169 -80.8750 288° West 348 400 34,000  Level Indianapolis Center
Wed 06:39:08 PM 39.2447 -80.9917 287° West 343 395 34,000  Level Indianapolis Center
Wed 06:40:10 PM 39.2750 -81.1083 289° West 344 396 34,000  Level Indianapolis Center
Wed 06:41:12 PM 39.3031 -81.2258 287° West 345 397 34,000  Level Indianapolis Center
Wed 06:42:14 PM 39.3319 -81.3417 288° West 342 394 34,000  Level Indianapolis Center
Wed 06:43:16 PM 39.3664 -81.4811 288° West 342 394 34,000  Level Indianapolis Center
Wed 06:44:18 PM 39.3933 -81.5967 287° West 339 390 34,000  Level Indianapolis Center
Wed 06:45:20 PM 39.4214 -81.7111 288° West 336 387 34,000  Level Indianapolis Center
Wed 06:46:22 PM 39.4475 -81.8247 287° West 332 382 34,000  Level Indianapolis Center
Wed 06:47:24 PM 39.4744 -81.9372 287° West 330 380 34,000  Level Indianapolis Center
Wed 06:48:26 PM 39.5067 -82.0706 287° West 324 373 34,000  Level Indianapolis Center
Wed 06:49:28 PM 39.5331 -82.1847 287° West 325 374 34,000  Level Indianapolis Center
Wed 06:50:30 PM 39.5597 -82.2956 287° West 320 368 34,000  Level Indianapolis Center
Wed 06:51:32 PM 39.5858 -82.4067 287° West 320 368 34,000  Level Indianapolis Center
Wed 06:52:34 PM 39.6103 -82.5158 286° West 313 360 34,000  Level Indianapolis Center
Wed 06:53:36 PM 39.6367 -82.6250 287° West 315 362 34,000  Level Indianapolis Center
Wed 06:54:38 PM 39.6611 -82.7347 286° West 314 361 34,000  Level Indianapolis Center
Wed 06:55:40 PM 39.6864 -82.8439 287° West 314 361 34,000 -145 Level Indianapolis Center
Wed 06:56:42 PM 39.7150 -82.9700 286° West 311 358 33,700 -683 Descending Indianapolis Center
Wed 06:57:43 PM 39.7403 -83.0781 287° West 310 357 32,600 -976 Descending Indianapolis Center
Wed 06:58:45 PM 39.7642 -83.1853 286° West 308 354 31,700 -919 Descending Indianapolis Center
Wed 06:59:47 PM 39.7883 -83.2939 286° West 309 356 30,700 -823 Descending Indianapolis Center
Wed 07:00:49 PM 39.8106 -83.3942 286° West 316 364 30,000 -339 Descending Indianapolis Center
Wed 07:01:51 PM 39.8417 -83.5297 287° West 325 374 30,000  Level Indianapolis Center
Wed 07:02:53 PM 39.8653 -83.6414 285° West 323 372 30,000  Level Indianapolis Center
Wed 07:03:55 PM 39.8906 -83.7556 286° West 326 375 30,000  Level Indianapolis Center
Wed 07:04:56 PM 39.9158 -83.8692 286° West 324 373 30,000  Level Indianapolis Center
Wed 07:05:58 PM 39.9403 -83.9817 286° West 320 368 30,000  Level Indianapolis Center
Wed 07:07:00 PM 39.9650 -84.0950 286° West 321 369 30,000  Level Indianapolis Center
Wed 07:08:02 PM 39.9894 -84.2081 286° West 321 369 30,000  Level Indianapolis Center
Wed 07:09:04 PM 40.0136 -84.3219 286° West 324 373 30,000  Level Indianapolis Center
Wed 07:10:06 PM 40.0428 -84.4556 286° West 325 374 30,000  Level Indianapolis Center
Wed 07:11:07 PM 40.0664 -84.5736 285° West 330 380 30,000 -488 Level Indianapolis Center
Wed 07:12:09 PM 40.0917 -84.6897 286° West 331 381 29,000 -919 Descending Indianapolis Center
Wed 07:13:11 PM 40.1133 -84.8075 284° West 330 380 28,100 -1,452 Descending Indianapolis Center
Wed 07:14:13 PM 40.1108 -84.9222 268° West 318 366 26,000 -2,081 Descending Indianapolis Center
Wed 07:15:15 PM 40.1097 -85.0319 269° West 304 350 23,800 -2,098 Descending Indianapolis Center
Wed 07:16:16 PM 40.1081 -85.1333 269° West 282 325 21,700 -2,195 Descending Indianapolis Center
Wed 07:17:18 PM 40.1067 -85.2469 269° West 269 310 19,300 -2,177 Descending Indianapolis Center
Wed 07:18:20 PM 40.1039 -85.3531 268° West 290 334 17,200 -2,146 Descending Indianapolis Center
Wed 07:19:21 PM 40.1039 -85.4644 270° West 304 350 14,900 -1,951 Descending Indianapolis Center
Wed 07:20:23 PM 40.0889 -85.5681 259° West 287 330 13,200 -1,645 Descending Indianapolis Center
Wed 07:21:25 PM 40.0678 -85.6667 254° West 283 326 11,500 -1,597 Descending Indianapolis Center
Wed 07:22:27 PM 40.0492 -85.7583 255° West 264 304 9,900 -1,610 Descending Indianapolis Center
Wed 07:23:28 PM 40.0303 -85.8469 254° West 255 293 8,200 -1,561 Descending Indianapolis Center
Wed 07:24:30 PM 40.0067 -85.9331 250° West 253 291 6,700 -1,355 Descending Indianapolis Center
Wed 07:25:32 PM 39.9508 -86.0072 226° Southwest 246 283 5,400 -829 Descending Indianapolis Center
Wed 07:26:33 PM 39.9053 -86.0658 225° Southwest 237 273 5,000 -293 Descending Indianapolis Center
Wed 07:27:35 PM 39.8631 -86.1200 225° Southwest 224 258 4,800 -702 Descending Indianapolis Center
Wed 07:28:07 PM 39.8500 -86.1500 240° Southwest 185 213 3,900 -1,174 Descending Indianapolis TRACON
Wed 07:29:07 PM 39.8000 -86.2000 218° Southwest 185 213 3,000 -909 Descending Indianapolis TRACON
Wed 07:30:19 PM 39.7667 -86.2333 218° Southwest 156 180 1,900 -818 Descending Indianapolis TRACON
Wed 07:31:19 PM 39.7333 -86.2833 229° Southwest 134 154 1,200 -700 Descending Indianapolis TRACON

Login

Don't have an account? Register now (free) for customized features, flight alerts, and more!